Time;durP1;ratioP1;P1;durP2;ratioP2;P2;SDS_P1;SDS_P2;PMS_P1;PMS_P2;Temp;Humidity;BMP_temperature;BMP_pressure;BME280_temperature;BME280_humidity;BME280_pressure;Samples;Min_cycle;Max_cycle;Signal;HPM_P1;HPM_P2
2024/01/28 00:01:38;;;;;;;14.93;5.90;;;2.80;99.90;;;;;;5093369;28;20165;-54
2024/01/28 00:04:03;;;;;;;17.33;6.53;;;2.80;99.90;;;;;;5093326;28;20502;-54
2024/01/28 00:06:29;;;;;;;15.98;5.18;;;2.80;99.90;;;;;;5093295;28;20568;-54
2024/01/28 00:08:54;;;;;;;13.63;5.28;;;2.80;99.90;;;;;;5093081;28;20676;-54
2024/01/28 00:11:20;;;;;;;13.60;5.50;;;2.80;99.90;;;;;;5093663;28;20236;-54
2024/01/28 00:13:46;;;;;;;11.75;5.22;;;2.80;99.90;;;;;;5093110;28;20161;-54
2024/01/28 00:16:19;;;;;;;11.85;5.38;;;2.80;99.90;;;;;;5093229;28;20245;-54
2024/01/28 00:18:45;;;;;;;14.30;5.15;;;2.80;99.90;;;;;;5093260;28;20184;-53
2024/01/28 00:21:10;;;;;;;17.75;6.05;;;2.80;99.90;;;;;;5093454;28;20169;-53
2024/01/28 00:23:36;;;;;;;17.25;5.53;;;2.80;99.90;;;;;;5093278;28;20177;-54
2024/01/28 00:26:04;;;;;;;14.60;5.10;;;2.80;99.90;;;;;;5093052;28;20166;-54
2024/01/28 00:28:30;;;;;;;11.15;4.97;;;2.80;99.90;;;;;;5092926;28;20201;-54
2024/01/28 00:30:56;;;;;;;12.70;4.82;;;2.80;99.90;;;;;;5092877;28;20173;-54
2024/01/28 00:33:21;;;;;;;16.75;5.50;;;2.80;99.90;;;;;;5093360;28;20498;-53
2024/01/28 00:35:47;;;;;;;13.70;5.50;;;2.70;99.90;;;;;;5092723;28;20165;-53
2024/01/28 00:38:13;;;;;;;10.15;5.15;;;2.70;99.90;;;;;;5092652;28;20174;-53
2024/01/28 00:40:38;;;;;;;16.80;5.45;;;2.60;99.90;;;;;;5091458;28;20157;-53
2024/01/28 00:43:04;;;;;;;13.65;5.85;;;2.60;99.90;;;;;;5092608;28;20165;-53
2024/01/28 00:45:31;;;;;;;16.08;5.30;;;2.60;99.90;;;;;;5092746;28;20165;-53
2024/01/28 00:47:56;;;;;;;13.80;5.35;;;2.60;99.90;;;;;;5091105;28;20684;-53
2024/01/28 00:50:22;;;;;;;15.57;6.03;;;2.60;99.90;;;;;;5092569;28;20176;-53
2024/01/28 00:52:48;;;;;;;13.75;5.78;;;2.60;99.90;;;;;;5093069;28;20260;-53
2024/01/28 00:55:14;;;;;;;15.52;5.57;;;2.50;99.90;;;;;;5092298;28;20166;-53
2024/01/28 00:57:40;;;;;;;13.68;5.55;;;2.50;99.90;;;;;;5092174;28;20209;-53
2024/01/28 01:00:07;;;;;;;12.25;6.32;;;2.50;99.90;;;;;;5092319;28;20176;-53
2024/01/28 01:02:32;;;;;;;22.02;5.20;;;2.50;99.90;;;;;;5092139;28;20192;-53
2024/01/28 01:04:58;;;;;;;13.48;5.68;;;2.50;99.90;;;;;;5090861;28;20202;-53
2024/01/28 01:07:26;;;;;;;13.93;5.28;;;2.50;99.90;;;;;;5091656;28;20276;-54
2024/01/28 01:09:52;;;;;;;12.75;6.15;;;2.40;99.90;;;;;;5092463;28;20173;-54
2024/01/28 01:12:17;;;;;;;10.38;5.10;;;2.40;99.90;;;;;;5092011;28;20594;-54
2024/01/28 01:14:43;;;;;;;9.20;4.82;;;2.40;99.90;;;;;;5091970;28;20176;-54
2024/01/28 01:17:08;;;;;;;14.65;5.28;;;2.40;99.90;;;;;;5091913;28;20180;-54
2024/01/28 01:19:34;;;;;;;12.50;5.00;;;2.40;99.90;;;;;;5091900;28;20161;-54
2024/01/28 01:22:01;;;;;;;10.45;4.97;;;2.40;99.90;;;;;;5091889;28;20169;-54
2024/01/28 01:24:27;;;;;;;17.20;5.80;;;2.30;99.90;;;;;;5091833;28;20521;-53
2024/01/28 01:26:52;;;;;;;14.30;4.95;;;2.40;99.90;;;;;;5092207;28;20162;-54
2024/01/28 01:29:18;;;;;;;11.70;4.78;;;2.40;99.90;;;;;;5092186;28;20177;-54
2024/01/28 01:31:43;;;;;;;15.68;4.85;;;2.30;99.90;;;;;;5091722;28;20209;-54
2024/01/28 01:34:09;;;;;;;13.25;4.25;;;2.30;99.90;;;;;;5091716;28;20161;-54
2024/01/28 01:36:34;;;;;;;14.02;5.28;;;2.30;99.90;;;;;;5091688;28;20244;-54
2024/01/28 01:39:00;;;;;;;10.48;4.43;;;2.30;99.90;;;;;;5091571;28;20173;-54
2024/01/28 01:41:26;;;;;;;15.07;5.07;;;2.30;99.90;;;;;;5091643;28;20172;-54
2024/01/28 01:43:54;;;;;;;12.48;4.80;;;2.30;99.90;;;;;;5092114;28;20161;-54
2024/01/28 01:46:22;;;;;;;11.93;5.18;;;2.30;99.90;;;;;;5091943;28;20192;-54
2024/01/28 01:48:49;;;;;;;10.50;4.93;;;2.30;99.90;;;;;;5091357;28;20227;-54
2024/01/28 01:51:15;;;;;;;11.57;5.03;;;2.30;99.90;;;;;;5091083;28;20629;-54
2024/01/28 01:53:42;;;;;;;16.25;4.93;;;2.30;99.90;;;;;;5091375;28;20171;-54
2024/01/28 01:56:08;;;;;;;12.38;5.13;;;2.30;99.90;;;;;;5091261;28;20685;-54
2024/01/28 01:58:34;;;;;;;11.57;4.80;;;2.30;99.90;;;;;;5091413;28;20173;-54
2024/01/28 02:01:01;;;;;;;12.48;5.40;;;2.30;99.90;;;;;;5091327;28;20648;-54
2024/01/28 02:03:28;;;;;;;11.82;4.57;;;2.30;99.90;;;;;;5091344;28;20180;-54
2024/01/28 02:05:53;;;;;;;13.23;4.72;;;2.30;99.90;;;;;;5091454;28;20241;-54
2024/01/28 02:08:19;;;;;;;15.02;4.55;;;2.30;99.90;;;;;;5091690;28;20291;-54
2024/01/28 02:10:46;;;;;;;13.75;5.15;;;2.20;99.90;;;;;;5091180;28;20230;-54
2024/01/28 02:13:11;;;;;;;13.02;4.07;;;2.20;99.90;;;;;;5091430;28;20166;-54
2024/01/28 02:15:38;;;;;;;8.32;4.50;;;2.20;99.90;;;;;;5091082;28;20209;-54
2024/01/28 02:18:04;;;;;;;14.30;5.15;;;2.20;99.90;;;;;;5091168;28;20522;-54
2024/01/28 02:20:30;;;;;;;10.30;4.55;;;2.20;99.90;;;;;;5091174;28;20207;-53
2024/01/28 02:22:56;;;;;;;14.48;6.07;;;2.20;99.90;;;;;;5090992;28;20173;-54
2024/01/28 02:25:22;;;;;;;12.50;5.03;;;2.20;99.90;;;;;;5091586;28;20195;-54
2024/01/28 02:27:47;;;;;;;12.52;5.05;;;2.20;99.90;;;;;;5091424;28;20201;-54
2024/01/28 02:30:14;;;;;;;11.30;4.85;;;2.20;99.90;;;;;;5091289;28;20173;-54
2024/01/28 02:32:50;;;;;;;12.02;5.55;;;2.10;99.90;;;;;;5090967;28;20625;-54
2024/01/28 02:35:16;;;;;;;12.30;5.85;;;2.10;99.90;;;;;;5090982;28;20219;-54
2024/01/28 02:37:42;;;;;;;11.93;5.18;;;2.20;99.90;;;;;;5090984;28;20165;-54
2024/01/28 02:40:08;;;;;;;12.77;4.90;;;2.10;99.90;;;;;;5091207;28;20637;-54
2024/01/28 02:42:34;;;;;;;13.32;4.50;;;2.10;99.90;;;;;;5091232;28;20248;-54
2024/01/28 02:45:00;;;;;;;12.63;4.95;;;2.10;99.90;;;;;;5090880;28;20215;-53
2024/01/28 02:47:26;;;;;;;9.18;3.95;;;2.10;99.90;;;;;;5090901;28;20209;-53
2024/01/28 02:49:51;;;;;;;11.65;4.60;;;2.10;99.90;;;;;;5091326;28;20173;-53
2024/01/28 02:52:17;;;;;;;11.90;4.18;;;2.10;99.90;;;;;;5090825;28;20164;-53
2024/01/28 02:54:43;;;;;;;9.98;4.38;;;2.10;99.90;;;;;;5090856;28;20574;-53
2024/01/28 02:57:08;;;;;;;10.50;4.05;;;2.10;99.90;;;;;;5090584;28;20256;-54
2024/01/28 02:59:34;;;;;;;13.80;5.15;;;2.10;99.90;;;;;;5090970;28;20177;-54
2024/01/28 03:01:59;;;;;;;10.45;4.10;;;2.10;99.90;;;;;;5090730;28;20659;-53
2024/01/28 03:04:25;;;;;;;14.30;4.85;;;2.10;99.90;;;;;;5094008;28;20158;-54
2024/01/28 03:06:50;;;;;;;9.88;4.22;;;2.10;99.90;;;;;;5094971;28;20165;-53
2024/01/28 03:09:18;;;;;;;9.98;4.03;;;2.00;99.90;;;;;;5094270;28;20209;-53
2024/01/28 03:11:44;;;;;;;11.45;4.28;;;2.10;99.90;;;;;;5094319;28;20158;-54
2024/01/28 03:14:10;;;;;;;10.10;4.28;;;2.10;99.90;;;;;;5094283;28;20176;-54
2024/01/28 03:16:36;;;;;;;17.02;4.32;;;2.10;99.90;;;;;;5092978;28;20223;-54
2024/01/28 03:19:02;;;;;;;10.60;3.97;;;2.10;99.90;;;;;;5094183;28;20165;-55
2024/01/28 03:21:28;;;;;;;17.58;5.05;;;2.00;99.90;;;;;;5094129;28;20594;-54
2024/01/28 03:23:53;;;;;;;9.98;3.83;;;2.10;99.90;;;;;;5094115;28;20225;-55
2024/01/28 03:26:19;;;;;;;16.25;4.70;;;2.00;99.90;;;;;;5094884;28;20508;-55
2024/01/28 03:28:45;;;;;;;10.13;4.28;;;2.00;99.90;;;;;;5093846;28;20209;-54
2024/01/28 03:31:11;;;;;;;8.18;4.05;;;2.00;99.90;;;;;;5093951;28;20162;-54
2024/01/28 03:33:36;;;;;;;12.63;4.88;;;2.00;99.90;;;;;;5094101;28;20573;-55
2024/01/28 03:36:02;;;;;;;9.15;5.57;;;2.00;99.90;;;;;;5094152;28;20280;-55
2024/01/28 03:38:27;;;;;;;7.13;3.95;;;2.00;99.90;;;;;;5093823;28;20169;-55
2024/01/28 03:40:53;;;;;;;9.30;4.43;;;2.00;99.90;;;;;;5093808;28;20162;-55
2024/01/28 03:43:18;;;;;;;12.73;4.57;;;2.00;99.90;;;;;;5094283;28;20172;-54
2024/01/28 03:45:44;;;;;;;12.52;4.68;;;2.00;99.90;;;;;;5093685;28;20173;-55
2024/01/28 03:48:10;;;;;;;18.10;5.20;;;2.00;99.90;;;;;;5093537;28;20204;-54
2024/01/28 03:50:35;;;;;;;7.47;4.22;;;2.10;99.90;;;;;;5092411;28;20347;-55
2024/01/28 03:53:01;;;;;;;19.05;4.70;;;2.00;99.90;;;;;;5092217;28;20177;-54
2024/01/28 03:55:26;;;;;;;7.90;3.80;;;2.00;99.90;;;;;;5093495;28;20179;-55
2024/01/28 03:57:52;;;;;;;14.25;4.38;;;2.00;99.90;;;;;;5093492;28;20247;-55
2024/01/28 04:00:22;;;;;;;9.00;4.30;;;2.00;99.90;;;;;;5094120;28;20170;-54
2024/01/28 04:02:47;;;;;;;8.10;3.92;;;2.00;99.90;;;;;;5093893;28;20169;-55
2024/01/28 04:05:14;;;;;;;13.52;4.22;;;2.00;99.90;;;;;;5093252;28;20165;-54
2024/01/28 04:07:39;;;;;;;13.93;3.85;;;2.00;99.90;;;;;;5093481;28;20560;-54
2024/01/28 04:10:05;;;;;;;9.40;4.28;;;2.00;99.90;;;;;;5093209;28;20165;-55
2024/01/28 04:12:31;;;;;;;10.85;5.00;;;2.00;99.90;;;;;;5093413;28;20302;-55
2024/01/28 04:14:56;;;;;;;11.38;4.00;;;2.00;99.90;;;;;;5092816;28;20260;-55
2024/01/28 04:17:22;;;;;;;12.35;4.28;;;2.00;99.90;;;;;;5093601;28;20169;-55
2024/01/28 04:19:47;;;;;;;10.35;3.65;;;2.00;99.90;;;;;;5093449;28;20252;-54
2024/01/28 04:22:14;;;;;;;14.18;3.72;;;2.00;99.90;;;;;;5093263;28;20643;-55
2024/01/28 04:24:39;;;;;;;7.72;4.57;;;2.00;99.90;;;;;;5092705;28;20191;-55
2024/01/28 04:27:05;;;;;;;9.80;3.70;;;2.00;99.90;;;;;;5092643;28;20617;-54
2024/01/28 04:29:30;;;;;;;12.40;4.30;;;2.00;99.90;;;;;;5092867;28;20170;-55
2024/01/28 04:31:56;;;;;;;8.57;3.55;;;2.00;99.90;;;;;;5091702;28;20169;-55
2024/01/28 04:34:22;;;;;;;10.10;4.18;;;1.90;99.90;;;;;;5093506;28;20629;-54
2024/01/28 04:36:48;;;;;;;11.98;4.28;;;1.90;99.90;;;;;;5093471;28;20169;-55
2024/01/28 04:39:15;;;;;;;11.70;3.78;;;1.90;99.90;;;;;;5092563;28;20169;-55
2024/01/28 04:41:41;;;;;;;10.77;3.65;;;1.80;99.90;;;;;;5092623;28;20189;-55
2024/01/28 04:44:08;;;;;;;13.85;4.70;;;1.90;99.90;;;;;;5092619;28;20195;-54
2024/01/28 04:46:33;;;;;;;10.60;3.80;;;1.80;99.90;;;;;;5092422;28;20161;-54
2024/01/28 04:49:00;;;;;;;10.63;4.55;;;1.80;99.90;;;;;;5092682;28;20204;-55
2024/01/28 04:51:29;;;;;;;9.60;4.50;;;1.80;99.90;;;;;;5092600;28;20256;-55
2024/01/28 04:53:54;;;;;;;12.30;3.92;;;1.90;99.90;;;;;;5092289;28;20166;-54
2024/01/28 04:56:20;;;;;;;13.95;4.10;;;1.80;99.90;;;;;;5092691;28;20208;-55
2024/01/28 04:58:45;;;;;;;21.30;4.88;;;1.90;99.90;;;;;;5092278;28;20161;-55
2024/01/28 05:01:11;;;;;;;10.43;3.90;;;1.90;99.90;;;;;;5092276;28;20168;-55
2024/01/28 05:03:37;;;;;;;17.35;4.90;;;1.80;99.90;;;;;;5092139;28;20172;-55
2024/01/28 05:06:04;;;;;;;11.80;3.92;;;1.90;99.90;;;;;;5092177;28;20173;-55
2024/01/28 05:08:30;;;;;;;8.57;4.75;;;1.80;99.90;;;;;;5092243;28;20205;-54
2024/01/28 05:10:57;;;;;;;9.73;3.95;;;1.80;99.90;;;;;;5092355;28;20165;-55
2024/01/28 05:13:23;;;;;;;8.68;3.80;;;1.80;99.90;;;;;;5092315;28;20177;-54
2024/01/28 05:15:48;;;;;;;10.55;4.10;;;1.80;99.90;;;;;;5092470;28;20214;-55
2024/01/28 05:18:15;;;;;;;7.45;3.38;;;1.80;99.90;;;;;;5092031;28;20632;-55
2024/01/28 05:20:41;;;;;;;12.43;4.05;;;1.80;99.90;;;;;;5091961;28;20187;-55
2024/01/28 05:23:06;;;;;;;9.13;3.67;;;1.80;99.90;;;;;;5091768;28;20177;-55
2024/01/28 05:25:32;;;;;;;8.70;3.70;;;1.80;99.90;;;;;;5091124;28;20610;-55
2024/01/28 05:27:58;;;;;;;9.65;3.78;;;1.80;99.90;;;;;;5091906;28;20201;-55
2024/01/28 05:30:23;;;;;;;16.05;3.95;;;1.80;99.90;;;;;;5090512;28;20632;-55
2024/01/28 05:32:49;;;;;;;11.35;3.30;;;1.80;99.90;;;;;;5090926;28;20199;-55
2024/01/28 05:35:15;;;;;;;13.00;4.28;;;1.80;99.90;;;;;;5091861;28;20218;-55
2024/01/28 05:37:41;;;;;;;7.75;4.35;;;1.80;99.90;;;;;;5091634;28;20173;-55
2024/01/28 05:40:08;;;;;;;10.77;4.10;;;1.80;99.90;;;;;;5091846;28;20172;-55
2024/01/28 05:42:34;;;;;;;12.32;3.95;;;1.80;99.90;;;;;;5091740;28;20169;-54
2024/01/28 05:44:59;;;;;;;11.05;4.28;;;1.80;99.90;;;;;;5091611;28;20170;-54
2024/01/28 05:47:25;;;;;;;10.27;4.43;;;1.70;99.90;;;;;;5091333;28;20189;-54
2024/01/28 05:49:51;;;;;;;7.07;3.75;;;1.80;99.90;;;;;;5092017;28;20173;-55
2024/01/28 05:52:16;;;;;;;8.80;3.83;;;1.70;99.90;;;;;;5092101;28;20169;-55
2024/01/28 05:54:42;;;;;;;15.85;5.18;;;1.80;99.90;;;;;;5091332;28;20173;-52
2024/01/28 05:57:12;;;;;;;14.38;4.05;;;1.80;99.90;;;;;;5091374;28;20283;-55
2024/01/28 05:59:38;;;;;;;8.98;4.60;;;1.80;99.90;;;;;;5091558;28;20173;-54
2024/01/28 06:02:03;;;;;;;18.55;5.03;;;1.70;99.90;;;;;;5091332;28;20608;-55
2024/01/28 06:04:29;;;;;;;18.20;4.70;;;1.70;99.90;;;;;;5091596;28;20173;-55
2024/01/28 06:06:55;;;;;;;13.85;4.07;;;1.80;99.90;;;;;;5091232;28;20617;-55
2024/01/28 06:09:21;;;;;;;13.40;4.20;;;1.70;99.90;;;;;;5091610;28;20216;-55
2024/01/28 06:11:46;;;;;;;15.57;4.47;;;1.70;99.90;;;;;;5091716;28;20244;-55
2024/01/28 06:14:12;;;;;;;15.07;4.10;;;1.70;99.90;;;;;;5091207;28;20200;-54
2024/01/28 06:16:38;;;;;;;17.10;3.85;;;1.70;99.90;;;;;;5091428;28;20230;-55
2024/01/28 06:19:04;;;;;;;13.05;4.30;;;1.70;99.90;;;;;;5091099;28;20219;-55
2024/01/28 06:21:29;;;;;;;10.80;4.30;;;1.80;99.90;;;;;;5091385;28;20162;-55
2024/01/28 06:23:55;;;;;;;11.98;4.05;;;1.80;99.90;;;;;;5091146;28;20609;-54
2024/01/28 06:26:21;;;;;;;9.07;3.53;;;1.80;99.90;;;;;;5091820;28;20302;-54
2024/01/28 06:28:46;;;;;;;7.10;3.42;;;1.80;99.90;;;;;;5091789;28;20250;-54
2024/01/28 06:31:13;;;;;;;16.05;3.67;;;1.80;99.90;;;;;;5091279;28;20173;-55
2024/01/28 06:33:39;;;;;;;10.98;3.67;;;1.80;99.90;;;;;;5091070;28;20172;-54
2024/01/28 06:36:05;;;;;;;11.57;3.33;;;1.80;99.90;;;;;;5091058;28;20162;-54
2024/01/28 06:38:30;;;;;;;10.60;3.83;;;1.80;99.90;;;;;;5094582;28;20165;-55
2024/01/28 06:40:57;;;;;;;10.48;3.30;;;1.80;99.90;;;;;;5095077;28;20704;-54
2024/01/28 06:43:25;;;;;;;8.15;3.33;;;1.80;99.90;;;;;;5093618;28;20181;-54
2024/01/28 06:45:51;;;;;;;10.98;3.65;;;1.70;99.90;;;;;;5095316;28;20260;-54
2024/01/28 06:48:17;;;;;;;8.88;3.58;;;1.70;99.90;;;;;;5095239;28;20695;-55
2024/01/28 06:50:42;;;;;;;9.93;3.90;;;1.70;99.90;;;;;;5094710;28;20165;-55
2024/01/28 06:53:08;;;;;;;8.73;3.50;;;1.70;99.90;;;;;;5094691;28;20207;-54
2024/01/28 06:55:33;;;;;;;5.68;3.38;;;1.70;99.90;;;;;;5094790;28;20161;-55
2024/01/28 06:58:00;;;;;;;9.65;3.70;;;1.70;99.90;;;;;;5094446;28;20309;-54
2024/01/28 07:00:26;;;;;;;9.63;3.72;;;1.70;99.90;;;;;;5094586;28;20174;-55
2024/01/28 07:02:53;;;;;;;11.02;3.65;;;1.70;99.90;;;;;;5094706;28;20613;-54
2024/01/28 07:05:19;;;;;;;9.38;4.07;;;1.70;99.90;;;;;;5094918;28;20177;-54
2024/01/28 07:07:45;;;;;;;7.03;3.55;;;1.70;99.90;;;;;;5094645;28;20247;-55
2024/01/28 07:10:10;;;;;;;5.07;3.33;;;1.70;99.90;;;;;;5094493;28;20611;-54
2024/01/28 07:12:38;;;;;;;6.85;3.28;;;1.70;99.90;;;;;;5094365;28;20248;-54
2024/01/28 07:15:04;;;;;;;11.05;4.38;;;1.70;99.90;;;;;;5094244;28;20534;-54
2024/01/28 07:17:29;;;;;;;15.05;3.58;;;1.70;99.90;;;;;;5094578;28;20170;-54
2024/01/28 07:19:55;;;;;;;13.50;3.85;;;1.70;99.90;;;;;;5094211;28;20230;-55
2024/01/28 07:22:21;;;;;;;8.73;3.95;;;1.70;99.90;;;;;;5094695;28;20169;-54
2024/01/28 07:24:46;;;;;;;5.55;2.97;;;1.70;99.90;;;;;;5094607;28;20204;-54
2024/01/28 07:27:12;;;;;;;9.00;3.85;;;1.80;99.90;;;;;;5092750;28;20169;-54
2024/01/28 07:29:37;;;;;;;6.82;2.90;;;1.70;99.90;;;;;;5093982;28;20173;-54
2024/01/28 07:32:03;;;;;;;10.73;3.83;;;1.70;99.90;;;;;;5094040;28;20215;-54
2024/01/28 07:34:29;;;;;;;10.18;3.58;;;1.80;99.90;;;;;;5094169;28;20555;-54
2024/01/28 07:36:56;;;;;;;9.15;3.25;;;1.80;99.90;;;;;;5094030;28;20165;-54
2024/01/28 07:39:21;;;;;;;6.70;3.50;;;1.80;99.90;;;;;;5093829;28;20177;-55
2024/01/28 07:41:47;;;;;;;10.30;3.20;;;1.80;99.90;;;;;;5094541;28;20169;-54
2024/01/28 07:44:13;;;;;;;7.47;3.25;;;1.80;99.90;;;;;;5094063;28;20173;-54
2024/01/28 07:46:38;;;;;;;8.65;3.80;;;1.90;99.90;;;;;;5093189;28;20169;-54
2024/01/28 07:49:04;;;;;;;10.98;4.00;;;1.90;99.90;;;;;;5092958;28;20227;-54
2024/01/28 07:51:29;;;;;;;9.93;3.67;;;1.90;99.90;;;;;;5092375;28;20176;-54
2024/01/28 07:53:55;;;;;;;9.73;3.70;;;1.90;99.90;;;;;;5093592;28;20526;-54
2024/01/28 07:56:20;;;;;;;4.93;3.00;;;2.00;99.90;;;;;;5093902;28;20216;-54
2024/01/28 07:58:46;;;;;;;8.77;3.70;;;0.40;99.90;;;;;;5094204;28;20173;-54
2024/01/28 08:01:12;;;;;;;9.80;3.65;;;2.00;99.90;;;;;;5093440;28;20185;-54
2024/01/28 08:03:38;;;;;;;8.00;4.07;;;2.10;99.90;;;;;;5093407;28;20192;-54
2024/01/28 08:06:04;;;;;;;6.15;3.10;;;2.10;99.90;;;;;;5093055;28;20651;-54
2024/01/28 08:08:30;;;;;;;11.23;4.47;;;2.10;99.90;;;;;;5093210;28;20262;-54
2024/01/28 08:10:56;;;;;;;8.63;3.83;;;2.20;99.90;;;;;;5093503;28;20173;-54
2024/01/28 08:13:22;;;;;;;8.57;3.75;;;2.30;99.90;;;;;;5092836;28;20173;-54
2024/01/28 08:15:48;;;;;;;11.73;3.72;;;2.30;99.90;;;;;;5093348;28;20636;-57
2024/01/28 08:18:14;;;;;;;14.50;4.07;;;2.40;99.90;;;;;;5093142;28;20636;-54
2024/01/28 08:20:39;;;;;;;6.78;3.63;;;2.50;99.90;;;;;;5093272;28;20172;-55
2024/01/28 08:23:05;;;;;;;9.75;3.88;;;2.50;99.90;;;;;;5093115;28;20638;-54
2024/01/28 08:25:31;;;;;;;6.28;3.50;;;2.60;99.90;;;;;;5092907;28;20161;-54
2024/01/28 08:27:56;;;;;;;5.70;3.53;;;2.60;99.90;;;;;;5092824;28;20221;-54
2024/01/28 08:30:26;;;;;;;8.57;4.00;;;2.60;99.90;;;;;;5092342;28;20173;-55
2024/01/28 08:32:51;;;;;;;6.88;3.40;;;2.70;99.90;;;;;;5092834;28;20191;-54
2024/01/28 08:35:18;;;;;;;13.32;3.95;;;2.80;99.90;;;;;;5093531;28;20640;-54
2024/01/28 08:37:45;;;;;;;6.88;3.05;;;2.80;99.90;;;;;;5091480;28;20584;-54
2024/01/28 08:40:10;;;;;;;9.70;3.15;;;2.90;99.90;;;;;;5093048;28;20600;-55
2024/01/28 08:42:36;;;;;;;9.13;3.60;;;3.10;99.90;;;;;;5092832;28;20165;-54
2024/01/28 08:45:02;;;;;;;8.23;3.88;;;3.10;99.90;;;;;;5092641;28;20561;-54
2024/01/28 08:47:28;;;;;;;16.98;3.45;;;3.20;99.90;;;;;;5092513;28;20185;-54
2024/01/28 08:49:53;;;;;;;10.20;3.85;;;3.20;99.90;;;;;;5092550;28;20205;-54
2024/01/28 08:52:20;;;;;;;11.52;4.10;;;3.40;99.90;;;;;;5093186;28;20204;-53
2024/01/28 08:54:46;;;;;;;7.10;4.05;;;3.40;99.90;;;;;;5092659;28;20579;-53
2024/01/28 08:57:12;;;;;;;7.10;3.83;;;3.40;99.90;;;;;;5092345;28;20237;-53
2024/01/28 08:59:38;;;;;;;8.32;4.20;;;3.50;99.90;;;;;;5090270;28;20537;-55
2024/01/28 09:02:03;;;;;;;6.55;3.45;;;3.50;99.90;;;;;;5091045;28;20181;-53
2024/01/28 09:04:29;;;;;;;7.80;3.50;;;3.50;99.90;;;;;;5090719;28;20173;-53
2024/01/28 09:06:55;;;;;;;8.60;3.70;;;3.60;99.90;;;;;;5092249;28;20176;-54
2024/01/28 09:09:21;;;;;;;6.35;3.25;;;3.70;99.90;;;;;;5091985;28;20665;-53
2024/01/28 09:11:46;;;;;;;7.35;3.50;;;3.80;99.90;;;;;;5092499;28;20240;-54
2024/01/28 09:14:12;;;;;;;8.68;3.67;;;3.80;99.90;;;;;;5092023;28;20256;-56
2024/01/28 09:16:38;;;;;;;5.18;2.90;;;3.90;99.90;;;;;;5091866;28;20213;-51
2024/01/28 09:19:04;;;;;;;7.30;3.30;;;4.00;99.90;;;;;;5091884;28;20643;-54
2024/01/28 09:21:30;;;;;;;4.82;3.22;;;3.90;99.90;;;;;;5091762;28;20705;-54
2024/01/28 09:23:57;;;;;;;6.90;3.25;;;4.00;99.90;;;;;;5091635;28;20169;-53
2024/01/28 09:26:22;;;;;;;6.28;2.75;;;4.10;99.90;;;;;;5091593;28;20165;-54
2024/01/28 09:28:48;;;;;;;5.18;3.28;;;4.20;99.90;;;;;;5092183;28;20208;-53
2024/01/28 09:31:13;;;;;;;6.28;2.97;;;4.30;99.90;;;;;;5091665;28;20629;-55
2024/01/28 09:33:39;;;;;;;6.97;3.20;;;4.30;99.90;;;;;;5091612;28;20693;-55
2024/01/28 09:36:04;;;;;;;8.13;3.17;;;4.30;99.90;;;;;;5091664;28;20545;-55
2024/01/28 09:38:30;;;;;;;6.35;2.72;;;4.30;99.90;;;;;;5091695;28;20200;-54
2024/01/28 09:41:08;;;;;;;10.95;2.88;;;4.50;99.90;;;;;;5091874;28;20216;-55
2024/01/28 09:43:38;;;;;;;7.40;3.10;;;4.40;99.90;;;;;;5091637;28;20166;-55
2024/01/28 09:46:04;;;;;;;6.75;3.58;;;4.40;99.90;;;;;;5090620;28;20215;-54
2024/01/28 09:48:30;;;;;;;5.65;3.13;;;4.50;99.90;;;;;;5091420;28;20205;-53
2024/01/28 09:50:56;;;;;;;9.20;4.53;;;4.70;99.90;;;;;;5091482;28;20612;-55
2024/01/28 09:53:21;;;;;;;9.25;4.50;;;4.70;99.90;;;;;;5091303;28;20173;-53
2024/01/28 09:55:47;;;;;;;12.80;4.35;;;4.80;99.90;;;;;;5091752;28;20577;-55
2024/01/28 09:58:13;;;;;;;11.13;4.28;;;4.90;99.90;;;;;;5091046;28;20217;-53
2024/01/28 10:00:38;;;;;;;9.65;4.10;;;4.90;99.90;;;;;;5091316;28;20203;-55
2024/01/28 10:03:04;;;;;;;6.05;3.20;;;4.90;99.90;;;;;;5091377;28;20169;-53
2024/01/28 10:05:30;;;;;;;5.72;3.28;;;5.00;99.90;;;;;;5091337;28;20176;-53
2024/01/28 10:08:05;;;;;;;9.82;4.13;;;5.10;99.90;;;;;;5091193;28;20205;-53
2024/01/28 10:10:34;;;;;;;10.07;3.38;;;5.10;99.90;;;;;;5091215;28;20518;-53
2024/01/28 10:13:00;;;;;;;9.18;3.58;;;5.10;99.90;;;;;;5096330;28;20157;-53
2024/01/28 10:15:27;;;;;;;10.57;4.00;;;5.30;99.90;;;;;;5098203;28;20168;-52
2024/01/28 10:17:53;;;;;;;9.05;4.25;;;5.40;99.90;;;;;;5097545;28;20655;-56
2024/01/28 10:20:20;;;;;;;9.77;4.82;;;5.60;99.90;;;;;;5098218;28;20205;-53
2024/01/28 10:22:46;;;;;;;9.88;3.80;;;5.70;99.90;;;;;;5098141;28;20651;-54
2024/01/28 10:25:15;;;;;;;7.72;3.67;;;5.80;99.90;;;;;;5097885;28;20535;-52
2024/01/28 10:27:42;;;;;;;7.75;4.43;;;5.80;99.90;;;;;;5097559;28;20192;-51
2024/01/28 10:30:09;;;;;;;10.98;4.10;;;5.90;99.90;;;;;;5097801;28;20581;-53
2024/01/28 10:32:34;;;;;;;10.02;4.00;;;5.90;99.90;;;;;;5097771;28;20613;-53
2024/01/28 10:35:00;;;;;;;9.98;4.35;;;6.00;99.90;;;;;;5097767;28;20205;-54
2024/01/28 10:37:32;;;;;;;19.92;8.32;;;6.10;99.90;;;;;;5097755;28;20640;-54
2024/01/28 10:40:05;;;;;;;13.10;6.47;;;6.10;99.90;;;;;;5097779;28;20523;-53
2024/01/28 10:42:36;;;;;;;11.82;6.65;;;6.20;99.90;;;;;;5097756;28;20157;-50
2024/01/28 10:45:03;;;;;;;17.48;7.82;;;6.30;99.90;;;;;;5097442;28;20171;-51
2024/01/28 10:47:31;;;;;;;10.25;4.90;;;6.40;99.90;;;;;;5096252;28;20252;-51
2024/01/28 10:49:59;;;;;;;13.02;8.63;;;6.50;99.90;;;;;;5097673;28;20196;-53
2024/01/28 10:52:26;;;;;;;9.82;5.25;;;6.50;99.90;;;;;;5097570;28;20203;-52
2024/01/28 10:54:52;;;;;;;9.13;4.32;;;6.50;99.90;;;;;;5097214;28;20248;-53
2024/01/28 10:57:25;;;;;;;7.85;4.70;;;6.50;99.90;;;;;;5097946;28;20235;-53
2024/01/28 10:59:52;;;;;;;6.85;4.10;;;6.60;99.90;;;;;;5097619;28;20620;-53
2024/01/28 11:02:20;;;;;;;12.20;4.90;;;6.70;99.90;;;;;;5098399;28;20180;-52
2024/01/28 11:04:46;;;;;;;7.38;4.25;;;6.70;99.90;;;;;;5097718;28;20573;-53
2024/01/28 11:07:12;;;;;;;9.82;4.40;;;6.80;99.90;;;;;;5097376;28;20183;-53
2024/01/28 11:09:38;;;;;;;10.65;5.22;;;6.80;99.90;;;;;;5097362;28;20637;-53
2024/01/28 11:12:04;;;;;;;12.65;4.68;;;6.80;99.90;;;;;;5097461;28;20164;-53
2024/01/28 11:14:30;;;;;;;6.47;3.45;;;6.90;99.90;;;;;;5097459;28;20179;-53
2024/01/28 11:16:56;;;;;;;9.10;4.28;;;7.00;99.90;;;;;;5097327;28;20244;-54
2024/01/28 11:19:27;;;;;;;11.23;4.97;;;7.00;99.90;;;;;;5097368;28;20164;-53
2024/01/28 11:21:52;;;;;;;7.50;4.22;;;7.10;99.90;;;;;;5096062;28;20557;-53
2024/01/28 11:24:18;;;;;;;14.48;7.95;;;7.20;99.90;;;;;;5094742;28;20161;-53
2024/01/28 11:26:46;;;;;;;11.02;5.10;;;7.30;99.90;;;;;;5094115;28;20165;-55
2024/01/28 11:29:12;;;;;;;11.65;5.65;;;7.30;99.90;;;;;;5092674;28;20350;-53
2024/01/28 11:31:39;;;;;;;8.35;4.10;;;7.30;99.90;;;;;;5094067;28;20210;-54
2024/01/28 11:34:13;;;;;;;12.07;7.10;;;7.40;99.90;;;;;;5094081;28;20157;-52
2024/01/28 11:36:44;;;;;;;9.20;4.53;;;7.50;99.90;;;;;;5093927;28;20169;-52
2024/01/28 11:39:12;;;;;;;11.45;5.68;;;7.50;99.90;;;;;;5094031;28;21022;-54
2024/01/28 11:41:38;;;;;;;9.88;5.05;;;7.70;99.90;;;;;;5093447;28;20252;-53
2024/01/28 11:44:07;;;;;;;9.48;5.60;;;7.70;99.90;;;;;;5093869;28;20158;-52
2024/01/28 11:46:34;;;;;;;11.50;4.45;;;7.70;99.90;;;;;;5093966;28;20197;-54
2024/01/28 11:49:00;;;;;;;12.27;7.03;;;7.80;99.90;;;;;;5093620;28;20203;-54
2024/01/28 11:51:28;;;;;;;9.25;5.57;;;7.90;99.90;;;;;;5093466;28;20240;-55
2024/01/28 11:53:54;;;;;;;7.28;3.15;;;7.90;99.90;;;;;;5092309;28;20221;-55
2024/01/28 11:56:20;;;;;;;8.23;4.93;;;8.00;99.90;;;;;;5093942;28;20217;-55
2024/01/28 11:58:46;;;;;;;7.43;4.45;;;8.00;99.90;;;;;;5094147;28;20185;-57
2024/01/28 12:01:11;;;;;;;9.20;3.55;;;8.10;99.90;;;;;;5093217;28;20172;-56
2024/01/28 12:03:37;;;;;;;8.35;4.25;;;8.10;99.90;;;;;;5092459;28;20227;-53
2024/01/28 12:06:03;;;;;;;9.52;3.13;;;8.20;99.90;;;;;;5093098;28;20574;-56
2024/01/28 12:08:29;;;;;;;3.45;2.75;;;8.20;99.90;;;;;;5093054;28;20201;-54
2024/01/28 12:11:02;;;;;;;9.80;3.47;;;8.20;99.90;;;;;;5092986;28;20158;-56
2024/01/28 12:13:35;;;;;;;8.65;3.35;;;8.20;99.90;;;;;;5091803;28;20681;-56
2024/01/28 12:16:05;;;;;;;8.18;3.85;;;8.30;99.90;;;;;;5091495;28;20640;-55
2024/01/28 12:18:38;;;;;;;6.45;3.35;;;8.40;99.90;;;;;;5092404;28;20176;-56
2024/01/28 12:21:14;;;;;;;8.40;2.90;;;8.40;99.90;;;;;;5092868;28;20205;-56
2024/01/28 12:23:40;;;;;;;8.15;2.80;;;8.40;99.90;;;;;;5092828;28;20218;-56
2024/01/28 12:26:05;;;;;;;11.52;3.40;;;8.50;99.90;;;;;;5092732;28;20245;-56
2024/01/28 12:28:31;;;;;;;9.80;3.38;;;8.50;99.90;;;;;;5092611;28;20287;-56
2024/01/28 12:30:59;;;;;;;7.30;4.07;;;8.50;99.90;;;;;;5092662;28;20165;-55
2024/01/28 12:33:28;;;;;;;5.78;2.75;;;8.50;99.90;;;;;;5092226;28;20303;-54
2024/01/28 12:35:54;;;;;;;6.53;3.13;;;8.50;99.90;;;;;;5092310;28;20157;-56
2024/01/28 12:38:19;;;;;;;7.85;4.53;;;8.50;99.90;;;;;;5092416;28;20169;-51
2024/01/28 12:40:47;;;;;;;7.80;3.75;;;8.50;99.90;;;;;;5092953;28;20171;-56
2024/01/28 12:43:13;;;;;;;5.63;3.38;;;8.50;99.90;;;;;;5092459;28;20161;-56
2024/01/28 12:45:38;;;;;;;10.45;3.05;;;8.50;99.90;;;;;;5091778;28;20865;-56